sensor_id;sensor_type;location;lat;lon;timestamp;pressure;altitude;pressure_sealevel;temperature;humidity
45040;BME280;30778;53.574;7.770;2023-03-26T00:00:38;100372.03;;;4.71;54.99
45040;BME280;30778;53.574;7.770;2023-03-26T00:03:05;100371.81;;;4.42;55.72
45040;BME280;30778;53.574;7.770;2023-03-26T00:05:31;100377.47;;;4.58;55.17
45040;BME280;30778;53.574;7.770;2023-03-26T00:07:57;100380.75;;;5.04;53.82
45040;BME280;30778;53.574;7.770;2023-03-26T00:10:23;100383.72;;;5.23;53.55
45040;BME280;30778;53.574;7.770;2023-03-26T00:12:50;100386.00;;;5.01;54.10
45040;BME280;30778;53.574;7.770;2023-03-26T00:15:15;100387.22;;;4.86;54.11
45040;BME280;30778;53.574;7.770;2023-03-26T00:17:41;100392.34;;;4.89;53.95
45040;BME280;30778;53.574;7.770;2023-03-26T00:20:07;100381.34;;;5.15;53.07
45040;BME280;30778;53.574;7.770;2023-03-26T00:22:33;100392.03;;;5.36;53.05
45040;BME280;30778;53.574;7.770;2023-03-26T00:24:58;100383.94;;;5.15;52.73
45040;BME280;30778;53.574;7.770;2023-03-26T00:27:25;100401.84;;;4.89;52.88
45040;BME280;30778;53.574;7.770;2023-03-26T00:29:51;100402.31;;;4.67;53.16
45040;BME280;30778;53.574;7.770;2023-03-26T00:32:20;100403.44;;;4.55;52.57
45040;BME280;30778;53.574;7.770;2023-03-26T00:34:46;100406.28;;;4.43;51.32
45040;BME280;30778;53.574;7.770;2023-03-26T00:37:11;100405.84;;;4.24;50.27
45040;BME280;30778;53.574;7.770;2023-03-26T00:39:38;100402.53;;;4.58;49.26
45040;BME280;30778;53.574;7.770;2023-03-26T00:42:04;100404.69;;;4.76;48.99
45040;BME280;30778;53.574;7.770;2023-03-26T00:44:33;100404.25;;;4.59;48.95
45040;BME280;30778;53.574;7.770;2023-03-26T00:46:59;100408.16;;;4.77;48.68
45040;BME280;30778;53.574;7.770;2023-03-26T00:49:25;100410.13;;;5.03;47.72
45040;BME280;30778;53.574;7.770;2023-03-26T00:51:55;100407.22;;;4.79;47.81
45040;BME280;30778;53.574;7.770;2023-03-26T00:54:20;100411.16;;;4.97;47.61
45040;BME280;30778;53.574;7.770;2023-03-26T00:56:46;100408.25;;;5.10;47.62
45040;BME280;30778;53.574;7.770;2023-03-26T00:59:11;100409.31;;;5.01;47.41
45040;BME280;30778;53.574;7.770;2023-03-26T01:01:37;100415.22;;;4.69;47.98
45040;BME280;30778;53.574;7.770;2023-03-26T01:04:30;100419.13;;;4.87;47.38
45040;BME280;30778;53.574;7.770;2023-03-26T01:06:58;100418.22;;;4.89;47.13
45040;BME280;30778;53.574;7.770;2023-03-26T01:09:31;100428.44;;;4.97;47.71
45040;BME280;30778;53.574;7.770;2023-03-26T01:11:59;100429.63;;;4.41;48.00
45040;BME280;30778;53.574;7.770;2023-03-26T01:14:25;100428.78;;;4.80;47.32
45040;BME280;30778;53.574;7.770;2023-03-26T01:16:59;100433.66;;;4.55;48.55
45040;BME280;30778;53.574;7.770;2023-03-26T01:22:13;100420.63;;;4.59;48.61
45040;BME280;30778;53.574;7.770;2023-03-26T01:24:39;100422.38;;;4.17;49.04
45040;BME280;30778;53.574;7.770;2023-03-26T01:38:29;100430.03;;;4.62;47.95
45040;BME280;30778;53.574;7.770;2023-03-26T01:41:30;100423.34;;;4.52;48.13
45040;BME280;30778;53.574;7.770;2023-03-26T01:46:24;100432.09;;;4.48;48.08
45040;BME280;30778;53.574;7.770;2023-03-26T01:48:52;100432.88;;;4.50;47.87
45040;BME280;30778;53.574;7.770;2023-03-26T01:51:32;100418.13;;;4.55;47.83
45040;BME280;30778;53.574;7.770;2023-03-26T01:54:03;100419.06;;;4.52;47.81
45040;BME280;30778;53.574;7.770;2023-03-26T02:02:08;100423.34;;;4.52;47.66
45040;BME280;30778;53.574;7.770;2023-03-26T02:04:56;100421.53;;;4.57;46.50
45040;BME280;30778;53.574;7.770;2023-03-26T02:10:02;100423.91;;;4.68;45.74
45040;BME280;30778;53.574;7.770;2023-03-26T02:12:31;100423.13;;;4.22;46.06
45040;BME280;30778;53.574;7.770;2023-03-26T02:14:58;100423.63;;;4.78;45.97
45040;BME280;30778;53.574;7.770;2023-03-26T02:17:24;100417.78;;;4.70;45.62
45040;BME280;30778;53.574;7.770;2023-03-26T02:19:52;100417.25;;;4.14;46.63
45040;BME280;30778;53.574;7.770;2023-03-26T02:22:18;100422.50;;;4.51;46.35
45040;BME280;30778;53.574;7.770;2023-03-26T02:24:45;100417.09;;;4.62;45.79
45040;BME280;30778;53.574;7.770;2023-03-26T02:27:11;100427.25;;;4.32;46.87
45040;BME280;30778;53.574;7.770;2023-03-26T02:29:38;100421.25;;;4.30;46.81
45040;BME280;30778;53.574;7.770;2023-03-26T02:32:07;100416.59;;;4.06;47.14
45040;BME280;30778;53.574;7.770;2023-03-26T02:34:36;100411.09;;;4.21;46.70
45040;BME280;30778;53.574;7.770;2023-03-26T02:37:01;100410.91;;;4.69;46.19
45040;BME280;30778;53.574;7.770;2023-03-26T02:39:27;100406.34;;;4.41;46.80
45040;BME280;30778;53.574;7.770;2023-03-26T02:41:56;100415.06;;;4.37;46.71
45040;BME280;30778;53.574;7.770;2023-03-26T02:44:22;100405.00;;;4.62;46.30
45040;BME280;30778;53.574;7.770;2023-03-26T02:46:56;100410.91;;;4.30;46.18
45040;BME280;30778;53.574;7.770;2023-03-26T02:49:41;100408.09;;;4.41;46.68
45040;BME280;30778;53.574;7.770;2023-03-26T02:52:07;100408.50;;;4.21;47.02
45040;BME280;30778;53.574;7.770;2023-03-26T02:54:36;100408.00;;;4.46;46.57
45040;BME280;30778;53.574;7.770;2023-03-26T02:57:12;100408.31;;;4.69;46.28
45040;BME280;30778;53.574;7.770;2023-03-26T02:59:54;100411.97;;;4.20;47.63
45040;BME280;30778;53.574;7.770;2023-03-26T03:02:39;100418.66;;;4.30;47.88
45040;BME280;30778;53.574;7.770;2023-03-26T03:05:28;100416.31;;;4.18;48.54
45040;BME280;30778;53.574;7.770;2023-03-26T03:08:25;100417.22;;;4.56;48.06
45040;BME280;30778;53.574;7.770;2023-03-26T03:11:12;100417.66;;;4.36;48.40
45040;BME280;30778;53.574;7.770;2023-03-26T03:13:42;100412.38;;;4.40;48.38
45040;BME280;30778;53.574;7.770;2023-03-26T03:16:08;100410.72;;;3.97;49.96
45040;BME280;30778;53.574;7.770;2023-03-26T03:18:35;100417.72;;;4.34;49.59
45040;BME280;30778;53.574;7.770;2023-03-26T03:21:01;100409.88;;;4.37;49.50
45040;BME280;30778;53.574;7.770;2023-03-26T03:23:27;100408.38;;;4.27;49.67
45040;BME280;30778;53.574;7.770;2023-03-26T03:26:03;100411.44;;;4.04;50.68
45040;BME280;30778;53.574;7.770;2023-03-26T03:28:30;100410.56;;;4.05;50.59
45040;BME280;30778;53.574;7.770;2023-03-26T03:30:55;100407.75;;;4.16;50.55
45040;BME280;30778;53.574;7.770;2023-03-26T03:33:30;100399.34;;;4.45;49.98
45040;BME280;30778;53.574;7.770;2023-03-26T03:35:55;100394.22;;;4.43;49.64
45040;BME280;30778;53.574;7.770;2023-03-26T03:38:22;100396.72;;;4.47;49.43
45040;BME280;30778;53.574;7.770;2023-03-26T03:40:49;100384.06;;;4.73;49.23
45040;BME280;30778;53.574;7.770;2023-03-26T03:43:16;100401.91;;;4.47;49.63
45040;BME280;30778;53.574;7.770;2023-03-26T03:45:59;100399.31;;;4.47;49.85
45040;BME280;30778;53.574;7.770;2023-03-26T03:48:57;100398.78;;;4.70;50.13
45040;BME280;30778;53.574;7.770;2023-03-26T03:51:33;100403.13;;;4.69;49.64
45040;BME280;30778;53.574;7.770;2023-03-26T03:54:02;100411.09;;;4.60;49.54
45040;BME280;30778;53.574;7.770;2023-03-26T03:56:50;100397.13;;;4.67;49.59
45040;BME280;30778;53.574;7.770;2023-03-26T03:59:22;100401.56;;;4.62;49.55
45040;BME280;30778;53.574;7.770;2023-03-26T04:01:47;100402.63;;;4.13;50.10
45040;BME280;30778;53.574;7.770;2023-03-26T04:04:24;100403.81;;;4.38;48.54
45040;BME280;30778;53.574;7.770;2023-03-26T04:06:57;100398.81;;;3.87;48.80
45040;BME280;30778;53.574;7.770;2023-03-26T04:09:27;100404.41;;;3.67;48.17
45040;BME280;30778;53.574;7.770;2023-03-26T04:11:57;100406.34;;;4.01;46.88
45040;BME280;30778;53.574;7.770;2023-03-26T04:14:40;100401.47;;;3.86;46.36
45040;BME280;30778;53.574;7.770;2023-03-26T04:17:14;100416.72;;;3.51;46.10
45040;BME280;30778;53.574;7.770;2023-03-26T04:19:40;100407.56;;;3.83;45.64
45040;BME280;30778;53.574;7.770;2023-03-26T04:22:08;100416.09;;;4.29;45.55
45040;BME280;30778;53.574;7.770;2023-03-26T04:24:45;100410.31;;;4.16;45.54
45040;BME280;30778;53.574;7.770;2023-03-26T04:27:24;100414.81;;;4.08;45.43
45040;BME280;30778;53.574;7.770;2023-03-26T04:30:00;100413.78;;;3.71;45.55
45040;BME280;30778;53.574;7.770;2023-03-26T04:32:30;100410.63;;;4.00;45.09
45040;BME280;30778;53.574;7.770;2023-03-26T04:35:02;100412.91;;;3.74;45.07
45040;BME280;30778;53.574;7.770;2023-03-26T04:37:34;100409.84;;;3.98;44.60
45040;BME280;30778;53.574;7.770;2023-03-26T04:40:13;100416.47;;;3.67;44.45
45040;BME280;30778;53.574;7.770;2023-03-26T04:42:49;100415.88;;;3.97;44.17
45040;BME280;30778;53.574;7.770;2023-03-26T04:45:51;100403.78;;;3.53;43.67
45040;BME280;30778;53.574;7.770;2023-03-26T04:48:22;100410.38;;;3.69;43.64
45040;BME280;30778;53.574;7.770;2023-03-26T04:50:48;100400.72;;;3.79;43.35
45040;BME280;30778;53.574;7.770;2023-03-26T04:53:19;100405.38;;;3.60;44.16
45040;BME280;30778;53.574;7.770;2023-03-26T04:59:19;100404.81;;;3.44;43.78
45040;BME280;30778;53.574;7.770;2023-03-26T05:01:52;100413.03;;;3.65;44.08
45040;BME280;30778;53.574;7.770;2023-03-26T05:04:19;100420.50;;;3.82;44.10
45040;BME280;30778;53.574;7.770;2023-03-26T05:06:45;100414.78;;;3.66;44.28
45040;BME280;30778;53.574;7.770;2023-03-26T05:09:26;100412.03;;;3.73;44.25
45040;BME280;30778;53.574;7.770;2023-03-26T05:12:10;100418.38;;;3.55;44.92
45040;BME280;30778;53.574;7.770;2023-03-26T05:14:48;100411.44;;;3.59;44.14
45040;BME280;30778;53.574;7.770;2023-03-26T05:17:21;100409.78;;;3.56;43.93
45040;BME280;30778;53.574;7.770;2023-03-26T05:19:47;100419.09;;;3.65;43.68
45040;BME280;30778;53.574;7.770;2023-03-26T05:22:14;100415.41;;;3.29;44.17
45040;BME280;30778;53.574;7.770;2023-03-26T05:24:59;100417.06;;;3.33;43.85
45040;BME280;30778;53.574;7.770;2023-03-26T05:27:25;100412.03;;;3.24;44.43
45040;BME280;30778;53.574;7.770;2023-03-26T05:29:51;100421.88;;;3.54;43.93
45040;BME280;30778;53.574;7.770;2023-03-26T05:32:16;100411.47;;;3.57;44.24
45040;BME280;30778;53.574;7.770;2023-03-26T05:34:43;100423.72;;;3.46;44.03
45040;BME280;30778;53.574;7.770;2023-03-26T05:37:09;100426.78;;;3.67;43.88
45040;BME280;30778;53.574;7.770;2023-03-26T05:39:53;100420.56;;;3.29;43.95
45040;BME280;30778;53.574;7.770;2023-03-26T05:42:40;100427.19;;;3.45;43.52
45040;BME280;30778;53.574;7.770;2023-03-26T05:45:29;100424.69;;;3.41;43.56
45040;BME280;30778;53.574;7.770;2023-03-26T05:48:15;100430.84;;;3.80;43.57
45040;BME280;30778;53.574;7.770;2023-03-26T05:50:41;100425.59;;;3.85;43.53
45040;BME280;30778;53.574;7.770;2023-03-26T05:53:07;100432.06;;;3.62;42.97
45040;BME280;30778;53.574;7.770;2023-03-26T05:56:05;100422.88;;;3.92;42.58
45040;BME280;30778;53.574;7.770;2023-03-26T05:58:49;100424.38;;;4.02;43.01
45040;BME280;30778;53.574;7.770;2023-03-26T06:01:39;100418.28;;;3.63;42.09
45040;BME280;30778;53.574;7.770;2023-03-26T06:04:27;100420.78;;;3.66;41.56
45040;BME280;30778;53.574;7.770;2023-03-26T06:07:31;100418.66;;;3.87;41.20
45040;BME280;30778;53.574;7.770;2023-03-26T06:10:16;100424.28;;;4.09;40.84
45040;BME280;30778;53.574;7.770;2023-03-26T06:12:43;100424.91;;;4.20;40.48
45040;BME280;30778;53.574;7.770;2023-03-26T06:15:09;100419.94;;;4.09;40.41
45040;BME280;30778;53.574;7.770;2023-03-26T06:17:45;100419.00;;;4.13;40.22
45040;BME280;30778;53.574;7.770;2023-03-26T06:20:32;100414.34;;;4.29;40.17
45040;BME280;30778;53.574;7.770;2023-03-26T06:23:01;100410.22;;;4.20;40.24
45040;BME280;30778;53.574;7.770;2023-03-26T06:25:46;100412.09;;;4.14;40.17
45040;BME280;30778;53.574;7.770;2023-03-26T06:28:32;100412.28;;;4.45;40.49
45040;BME280;30778;53.574;7.770;2023-03-26T06:31:24;100414.75;;;4.51;40.14
45040;BME280;30778;53.574;7.770;2023-03-26T06:34:09;100412.88;;;4.17;40.11
45040;BME280;30778;53.574;7.770;2023-03-26T06:36:35;100418.25;;;4.49;39.94
45040;BME280;30778;53.574;7.770;2023-03-26T06:39:04;100417.22;;;4.56;40.44
45040;BME280;30778;53.574;7.770;2023-03-26T06:41:32;100412.63;;;4.70;40.04
45040;BME280;30778;53.574;7.770;2023-03-26T06:44:12;100422.25;;;4.63;40.43
45040;BME280;30778;53.574;7.770;2023-03-26T06:46:56;100422.97;;;4.70;40.29
45040;BME280;30778;53.574;7.770;2023-03-26T06:49:42;100424.47;;;4.41;39.42
45040;BME280;30778;53.574;7.770;2023-03-26T06:52:26;100422.00;;;4.74;40.28
45040;BME280;30778;53.574;7.770;2023-03-26T06:55:19;100416.78;;;4.76;39.69
45040;BME280;30778;53.574;7.770;2023-03-26T06:58:03;100422.66;;;4.84;39.59
45040;BME280;30778;53.574;7.770;2023-03-26T07:00:44;100417.97;;;5.00;40.05
45040;BME280;30778;53.574;7.770;2023-03-26T07:03:28;100428.16;;;5.08;39.57
45040;BME280;30778;53.574;7.770;2023-03-26T07:06:12;100429.91;;;5.07;39.43
45040;BME280;30778;53.574;7.770;2023-03-26T07:08:58;100430.34;;;4.87;38.92
45040;BME280;30778;53.574;7.770;2023-03-26T07:11:26;100429.69;;;4.79;39.10
45040;BME280;30778;53.574;7.770;2023-03-26T07:14:16;100426.56;;;5.02;38.81
45040;BME280;30778;53.574;7.770;2023-03-26T07:17:10;100420.16;;;4.79;39.55
45040;BME280;30778;53.574;7.770;2023-03-26T07:19:52;100417.66;;;5.14;39.06
45040;BME280;30778;53.574;7.770;2023-03-26T07:22:24;100416.66;;;5.19;38.47
45040;BME280;30778;53.574;7.770;2023-03-26T07:25:05;100413.16;;;5.20;39.07
45040;BME280;30778;53.574;7.770;2023-03-26T07:31:49;100418.66;;;5.08;39.26
45040;BME280;30778;53.574;7.770;2023-03-26T07:41:17;100412.34;;;5.18;37.53
45040;BME280;30778;53.574;7.770;2023-03-26T07:47:26;100409.69;;;5.87;37.59
45040;BME280;30778;53.574;7.770;2023-03-26T07:50:17;100413.16;;;5.55;36.60
45040;BME280;30778;53.574;7.770;2023-03-26T07:52:58;100413.22;;;5.52;37.28
45040;BME280;30778;53.574;7.770;2023-03-26T07:59:00;100410.09;;;5.72;37.20
45040;BME280;30778;53.574;7.770;2023-03-26T08:13:55;100415.19;;;6.06;35.46
45040;BME280;30778;53.574;7.770;2023-03-26T08:21:50;100401.78;;;6.79;33.37
45040;BME280;30778;53.574;7.770;2023-03-26T08:24:39;100404.56;;;7.26;33.96
45040;BME280;30778;53.574;7.770;2023-03-26T08:32:13;100407.75;;;7.09;33.89
45040;BME280;30778;53.574;7.770;2023-03-26T08:34:42;100409.38;;;6.85;34.06
45040;BME280;30778;53.574;7.770;2023-03-26T08:37:08;100420.94;;;6.75;34.42
45040;BME280;30778;53.574;7.770;2023-03-26T08:39:35;100423.19;;;6.87;34.20
45040;BME280;30778;53.574;7.770;2023-03-26T08:56:46;100433.59;;;5.98;35.27
45040;BME280;30778;53.574;7.770;2023-03-26T09:17:13;100439.88;;;7.60;31.46
45040;BME280;30778;53.574;7.770;2023-03-26T09:22:40;100446.50;;;7.94;31.35
45040;BME280;30778;53.574;7.770;2023-03-26T09:29:05;100428.94;;;9.75;28.42
45040;BME280;30778;53.574;7.770;2023-03-26T09:34:30;100425.75;;;8.85;29.02
45040;BME280;30778;53.574;7.770;2023-03-26T09:37:39;100436.88;;;8.20;30.46
45040;BME280;30778;53.574;7.770;2023-03-26T09:40:18;100440.50;;;7.92;30.31
45040;BME280;30778;53.574;7.770;2023-03-26T09:52:23;100443.66;;;6.97;33.29
45040;BME280;30778;53.574;7.770;2023-03-26T09:54:50;100437.66;;;7.48;32.51
45040;BME280;30778;53.574;7.770;2023-03-26T09:58:43;100437.47;;;7.54;32.01
45040;BME280;30778;53.574;7.770;2023-03-26T10:01:24;100439.59;;;7.93;30.59
45040;BME280;30778;53.574;7.770;2023-03-26T10:03:59;100442.31;;;8.61;30.34
45040;BME280;30778;53.574;7.770;2023-03-26T10:06:55;100436.72;;;8.70;30.68
45040;BME280;30778;53.574;7.770;2023-03-26T10:09:47;100444.91;;;7.90;32.26
45040;BME280;30778;53.574;7.770;2023-03-26T10:12:23;100444.59;;;8.23;32.13
45040;BME280;30778;53.574;7.770;2023-03-26T10:31:19;100455.59;;;7.57;31.89
45040;BME280;30778;53.574;7.770;2023-03-26T10:36:35;100448.75;;;7.53;29.95
45040;BME280;30778;53.574;7.770;2023-03-26T10:41:36;100445.06;;;9.85;28.72
45040;BME280;30778;53.574;7.770;2023-03-26T10:49:32;100454.16;;;9.34;29.05
45040;BME280;30778;53.574;7.770;2023-03-26T10:52:03;100455.38;;;9.25;29.67
45040;BME280;30778;53.574;7.770;2023-03-26T10:57:23;100458.31;;;8.73;29.88
45040;BME280;30778;53.574;7.770;2023-03-26T10:59:54;100464.97;;;8.35;30.18
45040;BME280;30778;53.574;7.770;2023-03-26T11:02:30;100462.94;;;8.43;28.99
45040;BME280;30778;53.574;7.770;2023-03-26T11:07:51;100453.63;;;10.08;27.35
45040;BME280;30778;53.574;7.770;2023-03-26T11:15:44;100464.69;;;8.43;31.57
45040;BME280;30778;53.574;7.770;2023-03-26T11:18:34;100465.72;;;8.13;31.72
45040;BME280;30778;53.574;7.770;2023-03-26T11:21:07;100474.00;;;8.25;31.56
45040;BME280;30778;53.574;7.770;2023-03-26T11:23:59;100471.28;;;8.04;31.25
45040;BME280;30778;53.574;7.770;2023-03-26T11:27:30;100479.91;;;7.81;30.83
45040;BME280;30778;53.574;7.770;2023-03-26T11:32:38;100480.53;;;8.36;30.42
45040;BME280;30778;53.574;7.770;2023-03-26T11:35:18;100476.63;;;8.72;29.35
45040;BME280;30778;53.574;7.770;2023-03-26T11:37:50;100472.19;;;9.60;27.52
45040;BME280;30778;53.574;7.770;2023-03-26T11:40:23;100470.69;;;9.96;27.99
45040;BME280;30778;53.574;7.770;2023-03-26T11:42:53;100474.72;;;10.42;27.54
45040;BME280;30778;53.574;7.770;2023-03-26T11:45:30;100477.13;;;10.08;27.69
45040;BME280;30778;53.574;7.770;2023-03-26T11:48:07;100481.09;;;9.34;28.47
45040;BME280;30778;53.574;7.770;2023-03-26T11:50:42;100479.63;;;8.61;28.87
45040;BME280;30778;53.574;7.770;2023-03-26T11:53:12;100483.66;;;9.14;29.11
45040;BME280;30778;53.574;7.770;2023-03-26T11:56:36;100477.38;;;10.22;28.16
45040;BME280;30778;53.574;7.770;2023-03-26T12:01:26;100485.41;;;8.91;28.82
45040;BME280;30778;53.574;7.770;2023-03-26T12:04:09;100494.00;;;8.48;28.80
45040;BME280;30778;53.574;7.770;2023-03-26T12:06:37;100491.16;;;8.30;30.13
45040;BME280;30778;53.574;7.770;2023-03-26T12:09:03;100490.94;;;8.84;29.65
45040;BME280;30778;53.574;7.770;2023-03-26T12:11:29;100483.38;;;9.00;30.28
45040;BME280;30778;53.574;7.770;2023-03-26T12:14:01;100488.41;;;8.59;29.69
45040;BME280;30778;53.574;7.770;2023-03-26T12:16:28;100499.72;;;8.34;30.22
45040;BME280;30778;53.574;7.770;2023-03-26T12:19:03;100494.59;;;7.57;30.63
45040;BME280;30778;53.574;7.770;2023-03-26T12:21:43;100493.66;;;9.03;30.41
45040;BME280;30778;53.574;7.770;2023-03-26T12:24:27;100497.75;;;9.10;28.61
45040;BME280;30778;53.574;7.770;2023-03-26T12:26:59;100500.22;;;9.55;28.88
45040;BME280;30778;53.574;7.770;2023-03-26T12:29:27;100500.19;;;9.57;28.62
45040;BME280;30778;53.574;7.770;2023-03-26T12:31:55;100501.97;;;8.90;29.83
45040;BME280;30778;53.574;7.770;2023-03-26T12:34:29;100509.91;;;9.09;29.05
45040;BME280;30778;53.574;7.770;2023-03-26T12:36:58;100504.34;;;8.49;28.60
45040;BME280;30778;53.574;7.770;2023-03-26T12:40:27;100508.44;;;9.46;29.52
45040;BME280;30778;53.574;7.770;2023-03-26T12:42:29;100509.38;;;9.01;28.26
45040;BME280;30778;53.574;7.770;2023-03-26T12:44:56;100514.09;;;8.44;29.23
45040;BME280;30778;53.574;7.770;2023-03-26T12:47:29;100522.00;;;7.67;30.25
45040;BME280;30778;53.574;7.770;2023-03-26T12:49:57;100515.22;;;8.37;30.05
45040;BME280;30778;53.574;7.770;2023-03-26T12:57:42;100516.56;;;9.38;28.14
45040;BME280;30778;53.574;7.770;2023-03-26T13:00:43;100522.06;;;9.32;29.10
45040;BME280;30778;53.574;7.770;2023-03-26T13:03:52;100519.72;;;9.47;28.94
45040;BME280;30778;53.574;7.770;2023-03-26T13:12:19;100513.25;;;9.98;27.67
45040;BME280;30778;53.574;7.770;2023-03-26T13:14:59;100523.13;;;10.31;28.05
45040;BME280;30778;53.574;7.770;2023-03-26T13:20:23;100515.47;;;10.47;27.36
45040;BME280;30778;53.574;7.770;2023-03-26T13:28:30;100530.47;;;7.74;30.60
45040;BME280;30778;53.574;7.770;2023-03-26T13:33:36;100528.25;;;8.37;30.35
45040;BME280;30778;53.574;7.770;2023-03-26T13:39:20;100533.78;;;8.28;31.07
45040;BME280;30778;53.574;7.770;2023-03-26T13:42:56;100532.50;;;7.64;31.33
45040;BME280;30778;53.574;7.770;2023-03-26T13:47:41;100540.91;;;7.72;30.80
45040;BME280;30778;53.574;7.770;2023-03-26T13:50:25;100536.81;;;7.65;30.38
45040;BME280;30778;53.574;7.770;2023-03-26T13:53:20;100531.09;;;9.24;29.82
45040;BME280;30778;53.574;7.770;2023-03-26T13:55:50;100530.09;;;9.48;29.44
45040;BME280;30778;53.574;7.770;2023-03-26T13:58:51;100530.91;;;8.83;28.96
45040;BME280;30778;53.574;7.770;2023-03-26T14:01:37;100533.56;;;9.05;28.02
45040;BME280;30778;53.574;7.770;2023-03-26T14:06:52;100539.31;;;7.68;31.24
45040;BME280;30778;53.574;7.770;2023-03-26T14:09:34;100534.84;;;8.47;30.27
45040;BME280;30778;53.574;7.770;2023-03-26T14:12:13;100542.84;;;8.65;29.25
45040;BME280;30778;53.574;7.770;2023-03-26T14:14:57;100541.34;;;7.85;30.72
45040;BME280;30778;53.574;7.770;2023-03-26T14:17:36;100546.56;;;7.30;32.04
45040;BME280;30778;53.574;7.770;2023-03-26T14:20:25;100548.34;;;8.08;31.43
45040;BME280;30778;53.574;7.770;2023-03-26T14:23:03;100540.66;;;8.05;29.99
45040;BME280;30778;53.574;7.770;2023-03-26T14:34:03;100558.00;;;9.02;29.37
45040;BME280;30778;53.574;7.770;2023-03-26T14:41:51;100553.75;;;8.52;29.56
45040;BME280;30778;53.574;7.770;2023-03-26T14:54:37;100566.78;;;8.76;30.95
45040;BME280;30778;53.574;7.770;2023-03-26T15:00:24;100569.88;;;9.09;30.12
45040;BME280;30778;53.574;7.770;2023-03-26T15:29:02;100594.13;;;6.75;31.65
45040;BME280;30778;53.574;7.770;2023-03-26T15:37:28;100613.34;;;7.00;31.37
45040;BME280;30778;53.574;7.770;2023-03-26T15:43:12;100611.78;;;5.96;34.24
45040;BME280;30778;53.574;7.770;2023-03-26T15:51:32;100624.63;;;6.68;34.10
45040;BME280;30778;53.574;7.770;2023-03-26T15:54:02;100630.09;;;6.88;33.50
45040;BME280;30778;53.574;7.770;2023-03-26T15:56:43;100634.81;;;6.44;33.48
45040;BME280;30778;53.574;7.770;2023-03-26T16:09:58;100642.03;;;6.33;34.13
45040;BME280;30778;53.574;7.770;2023-03-26T16:12:45;100646.44;;;6.29;33.78
45040;BME280;30778;53.574;7.770;2023-03-26T16:15:23;100648.53;;;6.14;34.55
45040;BME280;30778;53.574;7.770;2023-03-26T16:23:33;100660.19;;;5.60;34.13
45040;BME280;30778;53.574;7.770;2023-03-26T16:26:18;100671.19;;;5.70;33.39
45040;BME280;30778;53.574;7.770;2023-03-26T16:33:48;100683.06;;;5.41;34.38
45040;BME280;30778;53.574;7.770;2023-03-26T16:36:36;100681.72;;;5.23;35.46
45040;BME280;30778;53.574;7.770;2023-03-26T16:41:50;100689.03;;;5.46;35.11
45040;BME280;30778;53.574;7.770;2023-03-26T16:53:20;100701.34;;;4.91;35.71
45040;BME280;30778;53.574;7.770;2023-03-26T16:56:20;100711.03;;;4.80;36.43
45040;BME280;30778;53.574;7.770;2023-03-26T16:58:54;100706.16;;;5.10;36.27
45040;BME280;30778;53.574;7.770;2023-03-26T17:01:39;100712.22;;;4.62;37.39
45040;BME280;30778;53.574;7.770;2023-03-26T17:04:23;100723.72;;;4.46;37.82
45040;BME280;30778;53.574;7.770;2023-03-26T17:12:13;100736.75;;;4.39;38.95
45040;BME280;30778;53.574;7.770;2023-03-26T17:23:26;100750.59;;;3.78;37.17
45040;BME280;30778;53.574;7.770;2023-03-26T17:26:10;100749.03;;;3.65;38.30
45040;BME280;30778;53.574;7.770;2023-03-26T17:31:40;100749.28;;;3.46;38.34
45040;BME280;30778;53.574;7.770;2023-03-26T17:42:28;100759.81;;;3.28;38.57
45040;BME280;30778;53.574;7.770;2023-03-26T17:47:30;100778.25;;;2.92;37.86
45040;BME280;30778;53.574;7.770;2023-03-26T17:50:03;100775.53;;;3.09;37.98
45040;BME280;30778;53.574;7.770;2023-03-26T17:52:58;100793.63;;;3.06;38.43
45040;BME280;30778;53.574;7.770;2023-03-26T17:55:26;100799.53;;;3.19;38.67
45040;BME280;30778;53.574;7.770;2023-03-26T17:57:58;100802.34;;;2.94;39.58
45040;BME280;30778;53.574;7.770;2023-03-26T18:00:38;100808.56;;;2.73;39.93
45040;BME280;30778;53.574;7.770;2023-03-26T18:03:19;100808.06;;;3.24;39.59
45040;BME280;30778;53.574;7.770;2023-03-26T18:05:46;100813.31;;;3.16;39.38
45040;BME280;30778;53.574;7.770;2023-03-26T18:14:32;100818.94;;;2.67;38.46
45040;BME280;30778;53.574;7.770;2023-03-26T18:17:05;100825.06;;;2.55;38.68
45040;BME280;30778;53.574;7.770;2023-03-26T18:19:48;100834.38;;;2.70;38.17
45040;BME280;30778;53.574;7.770;2023-03-26T18:22:18;100842.03;;;2.80;37.63
45040;BME280;30778;53.574;7.770;2023-03-26T18:24:45;100844.81;;;2.55;38.02
45040;BME280;30778;53.574;7.770;2023-03-26T18:27:21;100846.47;;;2.65;38.09
45040;BME280;30778;53.574;7.770;2023-03-26T18:32:24;100849.97;;;2.58;39.12
45040;BME280;30778;53.574;7.770;2023-03-26T18:35:10;100850.06;;;2.40;39.30
45040;BME280;30778;53.574;7.770;2023-03-26T18:37:39;100857.00;;;2.34;39.03
45040;BME280;30778;53.574;7.770;2023-03-26T18:40:09;100859.53;;;2.38;39.04
45040;BME280;30778;53.574;7.770;2023-03-26T18:42:43;100858.69;;;2.39;38.42
45040;BME280;30778;53.574;7.770;2023-03-26T18:45:24;100857.84;;;2.38;38.84
45040;BME280;30778;53.574;7.770;2023-03-26T18:47:52;100862.09;;;2.47;38.64
45040;BME280;30778;53.574;7.770;2023-03-26T18:50:25;100862.06;;;2.50;39.20
45040;BME280;30778;53.574;7.770;2023-03-26T18:52:51;100876.53;;;2.71;39.00
45040;BME280;30778;53.574;7.770;2023-03-26T18:55:17;100871.53;;;2.48;39.72
45040;BME280;30778;53.574;7.770;2023-03-26T18:57:43;100871.59;;;2.40;39.65
45040;BME280;30778;53.574;7.770;2023-03-26T19:00:20;100882.81;;;2.31;39.38
45040;BME280;30778;53.574;7.770;2023-03-26T19:02:49;100877.69;;;2.25;39.33
45040;BME280;30778;53.574;7.770;2023-03-26T19:05:19;100879.28;;;2.42;38.85
45040;BME280;30778;53.574;7.770;2023-03-26T19:07:46;100881.13;;;2.21;39.39
45040;BME280;30778;53.574;7.770;2023-03-26T19:10:16;100878.38;;;2.50;38.69
45040;BME280;30778;53.574;7.770;2023-03-26T19:13:02;100876.06;;;2.03;39.92
45040;BME280;30778;53.574;7.770;2023-03-26T19:15:31;100887.97;;;2.31;39.20